sensor_id;sensor_type;location;lat;lon;timestamp;P1;durP1;ratioP1;P2;durP2;ratioP2
71423;SDS011;59240;51.370;-0.486;2023-10-31T00:04:38;14.43;;;5.82;;
71423;SDS011;59240;51.370;-0.486;2023-10-31T00:09:35;11.23;;;5.85;;
71423;SDS011;59240;51.370;-0.486;2023-10-31T00:14:32;9.02;;;4.55;;
71423;SDS011;59240;51.370;-0.486;2023-10-31T00:19:29;11.23;;;5.03;;
71423;SDS011;59240;51.370;-0.486;2023-10-31T00:24:26;6.40;;;4.22;;
71423;SDS011;59240;51.370;-0.486;2023-10-31T00:29:23;11.02;;;4.25;;
71423;SDS011;59240;51.370;-0.486;2023-10-31T00:34:20;7.13;;;4.00;;
71423;SDS011;59240;51.370;-0.486;2023-10-31T00:39:16;7.47;;;4.00;;
71423;SDS011;59240;51.370;-0.486;2023-10-31T00:44:13;9.98;;;3.53;;
71423;SDS011;59240;51.370;-0.486;2023-10-31T00:49:10;10.30;;;3.78;;
71423;SDS011;59240;51.370;-0.486;2023-10-31T00:54:07;5.75;;;2.80;;
71423;SDS011;59240;51.370;-0.486;2023-10-31T00:59:04;8.50;;;3.05;;
71423;SDS011;59240;51.370;-0.486;2023-10-31T01:04:01;13.23;;;3.22;;
71423;SDS011;59240;51.370;-0.486;2023-10-31T01:08:58;6.75;;;2.95;;
71423;SDS011;59240;51.370;-0.486;2023-10-31T01:13:55;5.82;;;2.75;;
71423;SDS011;59240;51.370;-0.486;2023-10-31T01:18:51;6.00;;;3.00;;
71423;SDS011;59240;51.370;-0.486;2023-10-31T01:23:48;8.95;;;3.22;;
71423;SDS011;59240;51.370;-0.486;2023-10-31T01:28:45;6.50;;;2.60;;
71423;SDS011;59240;51.370;-0.486;2023-10-31T01:33:42;5.47;;;2.35;;
71423;SDS011;59240;51.370;-0.486;2023-10-31T01:38:40;6.43;;;2.20;;
71423;SDS011;59240;51.370;-0.486;2023-10-31T01:43:37;5.57;;;2.25;;
71423;SDS011;59240;51.370;-0.486;2023-10-31T01:48:34;8.23;;;2.95;;
71423;SDS011;59240;51.370;-0.486;2023-10-31T01:53:31;5.35;;;2.35;;
71423;SDS011;59240;51.370;-0.486;2023-10-31T01:58:34;3.25;;;2.15;;
71423;SDS011;59240;51.370;-0.486;2023-10-31T02:03:32;6.13;;;2.85;;
71423;SDS011;59240;51.370;-0.486;2023-10-31T02:08:30;6.80;;;2.78;;
71423;SDS011;59240;51.370;-0.486;2023-10-31T02:13:27;5.57;;;2.72;;
71423;SDS011;59240;51.370;-0.486;2023-10-31T02:18:23;6.40;;;2.60;;
71423;SDS011;59240;51.370;-0.486;2023-10-31T02:23:20;4.72;;;2.55;;
71423;SDS011;59240;51.370;-0.486;2023-10-31T02:28:17;6.72;;;2.70;;
71423;SDS011;59240;51.370;-0.486;2023-10-31T02:33:14;7.57;;;2.78;;
71423;SDS011;59240;51.370;-0.486;2023-10-31T02:38:11;6.63;;;2.85;;
71423;SDS011;59240;51.370;-0.486;2023-10-31T02:43:08;9.73;;;2.78;;
71423;SDS011;59240;51.370;-0.486;2023-10-31T02:48:05;6.07;;;2.88;;
71423;SDS011;59240;51.370;-0.486;2023-10-31T02:53:01;6.38;;;3.15;;
71423;SDS011;59240;51.370;-0.486;2023-10-31T02:57:58;9.05;;;3.38;;
71423;SDS011;59240;51.370;-0.486;2023-10-31T03:02:55;7.53;;;3.55;;
71423;SDS011;59240;51.370;-0.486;2023-10-31T03:07:52;6.32;;;3.25;;
71423;SDS011;59240;51.370;-0.486;2023-10-31T03:12:49;4.95;;;3.30;;
71423;SDS011;59240;51.370;-0.486;2023-10-31T03:17:46;12.55;;;3.65;;
71423;SDS011;59240;51.370;-0.486;2023-10-31T03:22:43;10.38;;;2.72;;
71423;SDS011;59240;51.370;-0.486;2023-10-31T03:27:40;6.68;;;3.42;;
71423;SDS011;59240;51.370;-0.486;2023-10-31T03:32:37;8.75;;;3.53;;
71423;SDS011;59240;51.370;-0.486;2023-10-31T03:37:34;7.65;;;3.63;;
71423;SDS011;59240;51.370;-0.486;2023-10-31T03:42:32;7.57;;;3.17;;
71423;SDS011;59240;51.370;-0.486;2023-10-31T03:47:29;8.98;;;3.65;;
71423;SDS011;59240;51.370;-0.486;2023-10-31T03:52:26;6.13;;;3.42;;
71423;SDS011;59240;51.370;-0.486;2023-10-31T03:57:23;6.38;;;3.50;;
71423;SDS011;59240;51.370;-0.486;2023-10-31T04:02:20;6.63;;;2.95;;
71423;SDS011;59240;51.370;-0.486;2023-10-31T04:07:16;6.40;;;3.78;;
71423;SDS011;59240;51.370;-0.486;2023-10-31T04:12:13;4.80;;;2.92;;
71423;SDS011;59240;51.370;-0.486;2023-10-31T04:17:10;6.22;;;3.05;;
71423;SDS011;59240;51.370;-0.486;2023-10-31T04:22:07;5.05;;;3.03;;
71423;SDS011;59240;51.370;-0.486;2023-10-31T04:27:04;8.02;;;3.33;;
71423;SDS011;59240;51.370;-0.486;2023-10-31T04:32:01;8.52;;;2.85;;
71423;SDS011;59240;51.370;-0.486;2023-10-31T04:36:58;8.38;;;3.15;;
71423;SDS011;59240;51.370;-0.486;2023-10-31T04:41:55;6.53;;;3.90;;
71423;SDS011;59240;51.370;-0.486;2023-10-31T04:46:52;5.80;;;3.40;;
71423;SDS011;59240;51.370;-0.486;2023-10-31T04:51:49;8.52;;;3.05;;
71423;SDS011;59240;51.370;-0.486;2023-10-31T04:56:46;7.55;;;3.58;;
71423;SDS011;59240;51.370;-0.486;2023-10-31T05:01:50;6.80;;;3.50;;
71423;SDS011;59240;51.370;-0.486;2023-10-31T05:06:47;6.30;;;2.97;;
71423;SDS011;59240;51.370;-0.486;2023-10-31T05:11:44;7.38;;;3.40;;
71423;SDS011;59240;51.370;-0.486;2023-10-31T05:16:41;5.90;;;3.13;;
71423;SDS011;59240;51.370;-0.486;2023-10-31T05:21:39;5.70;;;2.80;;
71423;SDS011;59240;51.370;-0.486;2023-10-31T05:26:36;9.82;;;3.67;;
71423;SDS011;59240;51.370;-0.486;2023-10-31T05:31:33;3.50;;;2.03;;
71423;SDS011;59240;51.370;-0.486;2023-10-31T05:36:30;4.75;;;2.30;;
71423;SDS011;59240;51.370;-0.486;2023-10-31T05:41:27;5.40;;;2.45;;
71423;SDS011;59240;51.370;-0.486;2023-10-31T05:46:23;4.57;;;2.40;;
71423;SDS011;59240;51.370;-0.486;2023-10-31T05:51:20;6.10;;;2.60;;
71423;SDS011;59240;51.370;-0.486;2023-10-31T05:56:17;6.43;;;2.63;;
71423;SDS011;59240;51.370;-0.486;2023-10-31T06:01:14;5.10;;;2.50;;
71423;SDS011;59240;51.370;-0.486;2023-10-31T06:06:11;4.00;;;2.30;;
71423;SDS011;59240;51.370;-0.486;2023-10-31T06:11:09;6.45;;;2.00;;
71423;SDS011;59240;51.370;-0.486;2023-10-31T06:16:09;5.03;;;2.42;;
71423;SDS011;59240;51.370;-0.486;2023-10-31T06:21:07;6.30;;;2.63;;
71423;SDS011;59240;51.370;-0.486;2023-10-31T06:26:07;6.88;;;2.35;;
71423;SDS011;59240;51.370;-0.486;2023-10-31T06:31:04;4.05;;;2.25;;
71423;SDS011;59240;51.370;-0.486;2023-10-31T06:36:01;6.82;;;2.83;;
71423;SDS011;59240;51.370;-0.486;2023-10-31T06:40:58;6.22;;;2.70;;
71423;SDS011;59240;51.370;-0.486;2023-10-31T06:45:55;7.55;;;2.42;;
71423;SDS011;59240;51.370;-0.486;2023-10-31T06:50:53;6.22;;;3.10;;
71423;SDS011;59240;51.370;-0.486;2023-10-31T06:55:50;4.40;;;3.30;;
71423;SDS011;59240;51.370;-0.486;2023-10-31T07:00:47;11.90;;;3.70;;
71423;SDS011;59240;51.370;-0.486;2023-10-31T07:05:44;7.05;;;4.00;;
71423;SDS011;59240;51.370;-0.486;2023-10-31T07:10:41;12.38;;;3.67;;
71423;SDS011;59240;51.370;-0.486;2023-10-31T07:15:38;5.78;;;3.78;;
71423;SDS011;59240;51.370;-0.486;2023-10-31T07:20:35;10.23;;;3.22;;
71423;SDS011;59240;51.370;-0.486;2023-10-31T07:25:32;8.07;;;2.78;;
71423;SDS011;59240;51.370;-0.486;2023-10-31T07:30:32;5.20;;;2.88;;
71423;SDS011;59240;51.370;-0.486;2023-10-31T07:35:28;4.32;;;2.53;;
71423;SDS011;59240;51.370;-0.486;2023-10-31T07:40:25;7.90;;;3.47;;
71423;SDS011;59240;51.370;-0.486;2023-10-31T07:45:22;6.15;;;3.03;;
71423;SDS011;59240;51.370;-0.486;2023-10-31T07:50:19;9.38;;;3.70;;
71423;SDS011;59240;51.370;-0.486;2023-10-31T07:55:15;7.10;;;3.35;;
71423;SDS011;59240;51.370;-0.486;2023-10-31T08:00:12;11.05;;;4.25;;
71423;SDS011;59240;51.370;-0.486;2023-10-31T08:05:10;8.65;;;4.10;;
71423;SDS011;59240;51.370;-0.486;2023-10-31T08:10:07;9.07;;;4.55;;
71423;SDS011;59240;51.370;-0.486;2023-10-31T08:15:04;8.55;;;4.03;;
71423;SDS011;59240;51.370;-0.486;2023-10-31T08:20:02;8.45;;;3.85;;
71423;SDS011;59240;51.370;-0.486;2023-10-31T08:25:02;15.30;;;4.28;;
71423;SDS011;59240;51.370;-0.486;2023-10-31T08:29:59;9.55;;;4.20;;
71423;SDS011;59240;51.370;-0.486;2023-10-31T08:34:56;8.43;;;3.65;;
71423;SDS011;59240;51.370;-0.486;2023-10-31T08:39:54;7.53;;;3.85;;
71423;SDS011;59240;51.370;-0.486;2023-10-31T08:44:51;10.05;;;4.50;;
71423;SDS011;59240;51.370;-0.486;2023-10-31T08:49:47;10.27;;;4.32;;
71423;SDS011;59240;51.370;-0.486;2023-10-31T08:54:45;13.32;;;5.45;;
71423;SDS011;59240;51.370;-0.486;2023-10-31T08:59:42;20.70;;;6.55;;
71423;SDS011;59240;51.370;-0.486;2023-10-31T09:04:39;21.55;;;7.55;;
71423;SDS011;59240;51.370;-0.486;2023-10-31T09:09:36;15.18;;;5.57;;
71423;SDS011;59240;51.370;-0.486;2023-10-31T09:14:33;14.55;;;6.53;;
71423;SDS011;59240;51.370;-0.486;2023-10-31T09:19:30;20.70;;;7.22;;
71423;SDS011;59240;51.370;-0.486;2023-10-31T09:24:27;16.20;;;7.80;;
71423;SDS011;59240;51.370;-0.486;2023-10-31T09:29:24;77.10;;;13.20;;
71423;SDS011;59240;51.370;-0.486;2023-10-31T09:34:25;22.95;;;11.52;;
71423;SDS011;59240;51.370;-0.486;2023-10-31T09:39:22;50.17;;;12.35;;
71423;SDS011;59240;51.370;-0.486;2023-10-31T09:44:19;11.20;;;5.18;;
71423;SDS011;59240;51.370;-0.486;2023-10-31T09:49:16;9.90;;;3.88;;
71423;SDS011;59240;51.370;-0.486;2023-10-31T09:54:14;5.38;;;2.13;;
71423;SDS011;59240;51.370;-0.486;2023-10-31T09:59:14;9.85;;;3.00;;
71423;SDS011;59240;51.370;-0.486;2023-10-31T10:04:12;7.93;;;2.17;;
71423;SDS011;59240;51.370;-0.486;2023-10-31T10:09:09;3.72;;;1.38;;
71423;SDS011;59240;51.370;-0.486;2023-10-31T10:14:06;3.05;;;1.70;;
71423;SDS011;59240;51.370;-0.486;2023-10-31T10:19:16;3.17;;;1.30;;
71423;SDS011;59240;51.370;-0.486;2023-10-31T10:24:17;5.18;;;1.63;;
71423;SDS011;59240;51.370;-0.486;2023-10-31T10:29:15;5.68;;;1.73;;
71423;SDS011;59240;51.370;-0.486;2023-10-31T10:34:15;5.35;;;1.92;;
71423;SDS011;59240;51.370;-0.486;2023-10-31T10:39:13;3.78;;;1.27;;
71423;SDS011;59240;51.370;-0.486;2023-10-31T10:44:15;1.45;;;1.00;;
71423;SDS011;59240;51.370;-0.486;2023-10-31T10:49:13;3.83;;;1.50;;
71423;SDS011;59240;51.370;-0.486;2023-10-31T10:54:16;4.40;;;1.77;;
71423;SDS011;59240;51.370;-0.486;2023-10-31T10:59:20;2.83;;;1.95;;
71423;SDS011;59240;51.370;-0.486;2023-10-31T11:04:19;4.70;;;2.20;;
71423;SDS011;59240;51.370;-0.486;2023-10-31T11:09:16;2.22;;;1.30;;
71423;SDS011;59240;51.370;-0.486;2023-10-31T11:14:14;2.83;;;0.77;;
71423;SDS011;59240;51.370;-0.486;2023-10-31T11:19:13;5.38;;;0.80;;
71423;SDS011;59240;51.370;-0.486;2023-10-31T11:24:11;4.03;;;0.80;;
71423;SDS011;59240;51.370;-0.486;2023-10-31T11:29:08;4.88;;;1.38;;
71423;SDS011;59240;51.370;-0.486;2023-10-31T11:34:06;2.45;;;0.57;;
71423;SDS011;59240;51.370;-0.486;2023-10-31T11:39:11;2.45;;;0.65;;
71423;SDS011;59240;51.370;-0.486;2023-10-31T11:44:09;7.03;;;0.88;;
71423;SDS011;59240;51.370;-0.486;2023-10-31T11:49:06;0.95;;;0.57;;
71423;SDS011;59240;51.370;-0.486;2023-10-31T11:54:06;3.30;;;0.80;;
71423;SDS011;59240;51.370;-0.486;2023-10-31T12:04:04;5.25;;;0.63;;
71423;SDS011;59240;51.370;-0.486;2023-10-31T12:09:04;3.22;;;0.90;;
71423;SDS011;59240;51.370;-0.486;2023-10-31T12:14:02;2.55;;;0.60;;
71423;SDS011;59240;51.370;-0.486;2023-10-31T12:24:03;1.80;;;0.73;;
71423;SDS011;59240;51.370;-0.486;2023-10-31T12:34:08;1.17;;;0.57;;
71423;SDS011;59240;51.370;-0.486;2023-10-31T12:39:07;1.83;;;0.57;;
71423;SDS011;59240;51.370;-0.486;2023-10-31T12:44:06;1.23;;;0.32;;
71423;SDS011;59240;51.370;-0.486;2023-10-31T12:49:16;0.65;;;0.32;;
71423;SDS011;59240;51.370;-0.486;2023-10-31T12:54:14;1.95;;;0.73;;
71423;SDS011;59240;51.370;-0.486;2023-10-31T12:59:24;4.43;;;0.60;;
71423;SDS011;59240;51.370;-0.486;2023-10-31T13:04:24;2.35;;;0.60;;
71423;SDS011;59240;51.370;-0.486;2023-10-31T13:09:29;2.63;;;0.90;;
71423;SDS011;59240;51.370;-0.486;2023-10-31T13:14:27;2.53;;;0.95;;
71423;SDS011;59240;51.370;-0.486;2023-10-31T13:19:24;2.67;;;1.52;;
71423;SDS011;59240;51.370;-0.486;2023-10-31T13:24:20;8.35;;;3.22;;
71423;SDS011;59240;51.370;-0.486;2023-10-31T13:29:18;6.85;;;2.92;;
71423;SDS011;59240;51.370;-0.486;2023-10-31T13:34:16;2.78;;;1.05;;
71423;SDS011;59240;51.370;-0.486;2023-10-31T13:39:13;0.95;;;0.70;;
71423;SDS011;59240;51.370;-0.486;2023-10-31T13:44:10;2.83;;;0.70;;
71423;SDS011;59240;51.370;-0.486;2023-10-31T13:49:06;1.95;;;0.70;;
71423;SDS011;59240;51.370;-0.486;2023-10-31T13:54:04;3.38;;;1.20;;
71423;SDS011;59240;51.370;-0.486;2023-10-31T13:59:01;3.63;;;0.75;;
71423;SDS011;59240;51.370;-0.486;2023-10-31T14:03:58;3.53;;;0.80;;
71423;SDS011;59240;51.370;-0.486;2023-10-31T14:08:55;1.75;;;0.43;;
71423;SDS011;59240;51.370;-0.486;2023-10-31T14:13:52;4.50;;;2.05;;
71423;SDS011;59240;51.370;-0.486;2023-10-31T14:18:49;1.95;;;0.65;;
71423;SDS011;59240;51.370;-0.486;2023-10-31T14:23:46;3.45;;;0.85;;
71423;SDS011;59240;51.370;-0.486;2023-10-31T14:28:59;4.65;;;0.82;;
71423;SDS011;59240;51.370;-0.486;2023-10-31T14:33:56;1.90;;;0.80;;
71423;SDS011;59240;51.370;-0.486;2023-10-31T14:38:54;2.85;;;0.90;;
71423;SDS011;59240;51.370;-0.486;2023-10-31T14:43:51;4.93;;;1.15;;
71423;SDS011;59240;51.370;-0.486;2023-10-31T14:48:48;3.97;;;1.48;;
71423;SDS011;59240;51.370;-0.486;2023-10-31T14:53:45;6.65;;;1.98;;
71423;SDS011;59240;51.370;-0.486;2023-10-31T14:58:45;5.70;;;2.22;;
71423;SDS011;59240;51.370;-0.486;2023-10-31T15:03:42;9.48;;;2.95;;
71423;SDS011;59240;51.370;-0.486;2023-10-31T15:08:38;7.15;;;2.75;;
71423;SDS011;59240;51.370;-0.486;2023-10-31T15:13:35;7.90;;;2.95;;
71423;SDS011;59240;51.370;-0.486;2023-10-31T15:18:32;9.10;;;3.13;;
71423;SDS011;59240;51.370;-0.486;2023-10-31T15:23:29;6.45;;;2.58;;
71423;SDS011;59240;51.370;-0.486;2023-10-31T15:28:27;7.68;;;3.05;;
71423;SDS011;59240;51.370;-0.486;2023-10-31T15:33:24;5.53;;;2.97;;
71423;SDS011;59240;51.370;-0.486;2023-10-31T15:38:21;6.25;;;2.65;;
71423;SDS011;59240;51.370;-0.486;2023-10-31T15:43:17;13.40;;;4.03;;
71423;SDS011;59240;51.370;-0.486;2023-10-31T15:48:15;8.95;;;3.47;;
71423;SDS011;59240;51.370;-0.486;2023-10-31T15:53:11;12.80;;;3.95;;
71423;SDS011;59240;51.370;-0.486;2023-10-31T15:58:08;8.05;;;4.03;;
71423;SDS011;59240;51.370;-0.486;2023-10-31T16:03:05;9.20;;;4.40;;
71423;SDS011;59240;51.370;-0.486;2023-10-31T16:08:02;11.35;;;3.15;;
71423;SDS011;59240;51.370;-0.486;2023-10-31T16:12:59;9.80;;;3.40;;
71423;SDS011;59240;51.370;-0.486;2023-10-31T16:17:56;23.48;;;9.85;;
71423;SDS011;59240;51.370;-0.486;2023-10-31T16:22:52;12.80;;;5.90;;
71423;SDS011;59240;51.370;-0.486;2023-10-31T16:27:49;15.55;;;5.85;;
71423;SDS011;59240;51.370;-0.486;2023-10-31T16:32:47;13.10;;;5.72;;
71423;SDS011;59240;51.370;-0.486;2023-10-31T16:37:44;10.70;;;4.32;;
71423;SDS011;59240;51.370;-0.486;2023-10-31T16:42:41;13.57;;;4.47;;
71423;SDS011;59240;51.370;-0.486;2023-10-31T16:47:38;10.00;;;3.63;;
71423;SDS011;59240;51.370;-0.486;2023-10-31T16:52:35;6.97;;;3.00;;
71423;SDS011;59240;51.370;-0.486;2023-10-31T16:57:32;13.00;;;3.60;;
71423;SDS011;59240;51.370;-0.486;2023-10-31T17:02:29;8.00;;;2.85;;
71423;SDS011;59240;51.370;-0.486;2023-10-31T17:07:26;6.70;;;3.85;;
71423;SDS011;59240;51.370;-0.486;2023-10-31T17:12:23;15.73;;;3.05;;
71423;SDS011;59240;51.370;-0.486;2023-10-31T17:17:19;9.52;;;2.95;;
71423;SDS011;59240;51.370;-0.486;2023-10-31T17:22:18;12.05;;;4.50;;
71423;SDS011;59240;51.370;-0.486;2023-10-31T17:27:16;20.30;;;9.25;;
71423;SDS011;59240;51.370;-0.486;2023-10-31T17:32:12;16.98;;;8.90;;
71423;SDS011;59240;51.370;-0.486;2023-10-31T17:37:18;11.70;;;6.55;;
71423;SDS011;59240;51.370;-0.486;2023-10-31T17:42:15;14.15;;;6.60;;
71423;SDS011;59240;51.370;-0.486;2023-10-31T17:47:11;11.02;;;6.30;;
71423;SDS011;59240;51.370;-0.486;2023-10-31T17:52:08;13.93;;;6.53;;
71423;SDS011;59240;51.370;-0.486;2023-10-31T17:57:05;11.18;;;4.38;;
71423;SDS011;59240;51.370;-0.486;2023-10-31T18:02:03;11.50;;;4.88;;
71423;SDS011;59240;51.370;-0.486;2023-10-31T18:07:00;14.90;;;5.18;;
71423;SDS011;59240;51.370;-0.486;2023-10-31T18:11:57;13.98;;;4.47;;
71423;SDS011;59240;51.370;-0.486;2023-10-31T18:16:54;15.15;;;2.75;;
71423;SDS011;59240;51.370;-0.486;2023-10-31T18:21:50;14.02;;;3.67;;
71423;SDS011;59240;51.370;-0.486;2023-10-31T18:26:47;11.23;;;3.22;;
71423;SDS011;59240;51.370;-0.486;2023-10-31T18:31:44;9.93;;;2.83;;
71423;SDS011;59240;51.370;-0.486;2023-10-31T18:36:41;9.60;;;3.28;;
71423;SDS011;59240;51.370;-0.486;2023-10-31T18:41:38;11.23;;;4.13;;
71423;SDS011;59240;51.370;-0.486;2023-10-31T18:46:35;11.30;;;4.65;;
71423;SDS011;59240;51.370;-0.486;2023-10-31T18:51:32;18.73;;;5.47;;
71423;SDS011;59240;51.370;-0.486;2023-10-31T18:56:29;52.20;;;17.48;;
71423;SDS011;59240;51.370;-0.486;2023-10-31T19:01:26;18.20;;;6.28;;
71423;SDS011;59240;51.370;-0.486;2023-10-31T19:06:23;5.72;;;3.30;;
71423;SDS011;59240;51.370;-0.486;2023-10-31T19:11:19;12.82;;;3.60;;
71423;SDS011;59240;51.370;-0.486;2023-10-31T19:16:16;7.97;;;2.22;;
71423;SDS011;59240;51.370;-0.486;2023-10-31T19:21:14;5.53;;;1.55;;
71423;SDS011;59240;51.370;-0.486;2023-10-31T19:26:11;14.15;;;2.13;;
71423;SDS011;59240;51.370;-0.486;2023-10-31T19:31:07;3.72;;;1.33;;
71423;SDS011;59240;51.370;-0.486;2023-10-31T19:36:04;5.47;;;2.35;;
71423;SDS011;59240;51.370;-0.486;2023-10-31T19:41:02;6.45;;;1.70;;
71423;SDS011;59240;51.370;-0.486;2023-10-31T19:46:02;9.50;;;1.92;;
71423;SDS011;59240;51.370;-0.486;2023-10-31T19:50:59;6.85;;;1.70;;
71423;SDS011;59240;51.370;-0.486;2023-10-31T19:55:57;3.72;;;0.93;;
71423;SDS011;59240;51.370;-0.486;2023-10-31T20:00:54;12.13;;;2.22;;
71423;SDS011;59240;51.370;-0.486;2023-10-31T20:05:51;5.60;;;1.20;;
71423;SDS011;59240;51.370;-0.486;2023-10-31T20:10:48;8.15;;;1.40;;
71423;SDS011;59240;51.370;-0.486;2023-10-31T20:15:45;7.88;;;1.35;;
71423;SDS011;59240;51.370;-0.486;2023-10-31T20:20:46;9.27;;;1.90;;
71423;SDS011;59240;51.370;-0.486;2023-10-31T20:25:42;8.18;;;1.65;;
71423;SDS011;59240;51.370;-0.486;2023-10-31T20:30:39;4.53;;;1.60;;
71423;SDS011;59240;51.370;-0.486;2023-10-31T20:35:36;9.70;;;2.70;;
71423;SDS011;59240;51.370;-0.486;2023-10-31T20:40:33;2.83;;;1.70;;
71423;SDS011;59240;51.370;-0.486;2023-10-31T20:45:30;7.50;;;1.60;;
71423;SDS011;59240;51.370;-0.486;2023-10-31T20:50:27;7.57;;;1.85;;
71423;SDS011;59240;51.370;-0.486;2023-10-31T20:55:23;4.50;;;1.15;;
71423;SDS011;59240;51.370;-0.486;2023-10-31T21:00:21;8.05;;;2.25;;
71423;SDS011;59240;51.370;-0.486;2023-10-31T21:05:20;8.00;;;1.50;;
71423;SDS011;59240;51.370;-0.486;2023-10-31T21:10:17;4.10;;;1.63;;
71423;SDS011;59240;51.370;-0.486;2023-10-31T21:15:14;8.13;;;1.00;;
71423;SDS011;59240;51.370;-0.486;2023-10-31T21:20:11;1.77;;;0.93;;
71423;SDS011;59240;51.370;-0.486;2023-10-31T21:25:09;4.45;;;1.15;;
71423;SDS011;59240;51.370;-0.486;2023-10-31T21:30:06;4.47;;;0.90;;
71423;SDS011;59240;51.370;-0.486;2023-10-31T21:35:04;5.55;;;1.17;;
71423;SDS011;59240;51.370;-0.486;2023-10-31T21:40:01;2.70;;;1.10;;
71423;SDS011;59240;51.370;-0.486;2023-10-31T21:44:58;6.60;;;1.70;;
71423;SDS011;59240;51.370;-0.486;2023-10-31T21:49:56;6.18;;;1.52;;
71423;SDS011;59240;51.370;-0.486;2023-10-31T21:54:53;2.13;;;0.85;;
71423;SDS011;59240;51.370;-0.486;2023-10-31T21:59:50;4.32;;;2.40;;
71423;SDS011;59240;51.370;-0.486;2023-10-31T22:04:47;10.68;;;1.98;;
71423;SDS011;59240;51.370;-0.486;2023-10-31T22:09:44;10.45;;;1.20;;
71423;SDS011;59240;51.370;-0.486;2023-10-31T22:14:40;5.13;;;0.93;;
71423;SDS011;59240;51.370;-0.486;2023-10-31T22:19:37;1.63;;;0.80;;
71423;SDS011;59240;51.370;-0.486;2023-10-31T22:24:34;1.83;;;0.98;;
71423;SDS011;59240;51.370;-0.486;2023-10-31T22:29:31;5.53;;;1.33;;
71423;SDS011;59240;51.370;-0.486;2023-10-31T22:34:27;2.60;;;0.88;;
71423;SDS011;59240;51.370;-0.486;2023-10-31T22:39:26;1.88;;;0.70;;
71423;SDS011;59240;51.370;-0.486;2023-10-31T22:44:22;3.50;;;0.93;;
71423;SDS011;59240;51.370;-0.486;2023-10-31T22:49:19;3.75;;;0.80;;
71423;SDS011;59240;51.370;-0.486;2023-10-31T22:54:16;5.95;;;0.80;;
71423;SDS011;59240;51.370;-0.486;2023-10-31T22:59:13;5.57;;;0.85;;
71423;SDS011;59240;51.370;-0.486;2023-10-31T23:04:10;6.60;;;1.00;;
71423;SDS011;59240;51.370;-0.486;2023-10-31T23:09:07;3.03;;;0.98;;
71423;SDS011;59240;51.370;-0.486;2023-10-31T23:14:12;5.43;;;0.85;;
71423;SDS011;59240;51.370;-0.486;2023-10-31T23:19:08;10.32;;;2.13;;
71423;SDS011;59240;51.370;-0.486;2023-10-31T23:24:05;6.68;;;2.75;;
71423;SDS011;59240;51.370;-0.486;2023-10-31T23:29:02;2.20;;;0.98;;
71423;SDS011;59240;51.370;-0.486;2023-10-31T23:33:59;1.85;;;1.10;;
71423;SDS011;59240;51.370;-0.486;2023-10-31T23:38:56;0.80;;;0.50;;
71423;SDS011;59240;51.370;-0.486;2023-10-31T23:43:53;2.75;;;0.40;;
71423;SDS011;59240;51.370;-0.486;2023-10-31T23:48:50;1.77;;;0.60;;
71423;SDS011;59240;51.370;-0.486;2023-10-31T23:53:46;0.50;;;0.40;;
71423;SDS011;59240;51.370;-0.486;2023-10-31T23:58:43;3.33;;;0.50;;
